createdAt,value
2018-03-20T00:00:34.630Z,988.89
2018-03-20T00:01:34.528Z,988.89
2018-03-20T00:02:34.519Z,988.89
2018-03-20T00:03:35.231Z,988.85
2018-03-20T00:04:34.507Z,988.88
2018-03-20T00:05:34.439Z,988.86
2018-03-20T00:06:34.410Z,988.85
2018-03-20T00:07:34.389Z,988.89
2018-03-20T00:08:34.393Z,988.88
2018-03-20T00:09:34.337Z,988.87
2018-03-20T00:10:34.308Z,988.88
2018-03-20T00:11:34.259Z,988.84
2018-03-20T00:12:34.260Z,988.81
2018-03-20T00:13:34.208Z,988.83
2018-03-20T00:14:34.249Z,988.82
2018-03-20T00:15:34.194Z,988.83
2018-03-20T00:16:34.133Z,988.81
2018-03-20T00:17:34.148Z,988.84
2018-03-20T00:18:34.116Z,988.82
2018-03-20T00:19:34.062Z,988.83
2018-03-20T00:20:34.009Z,988.82
2018-03-20T00:21:34.014Z,988.82
2018-03-20T00:22:34.034Z,988.83
2018-03-20T00:23:34.043Z,988.83
2018-03-20T00:24:33.927Z,988.86
2018-03-20T00:25:33.873Z,988.82
2018-03-20T00:26:33.913Z,988.79
2018-03-20T00:27:33.850Z,988.79
2018-03-20T00:28:33.872Z,988.80
2018-03-20T00:29:33.818Z,988.79
2018-03-20T00:30:33.735Z,988.80
2018-03-20T00:31:33.753Z,988.82
2018-03-20T00:32:33.740Z,988.85
2018-03-20T00:33:33.681Z,988.81
2018-03-20T00:34:33.652Z,988.83
2018-03-20T00:35:33.662Z,988.81
2018-03-20T00:36:33.591Z,988.81
2018-03-20T00:37:33.572Z,988.89
2018-03-20T00:38:33.593Z,988.86
2018-03-20T00:39:33.521Z,988.87
2018-03-20T00:40:33.456Z,988.82
2018-03-20T00:41:33.467Z,988.82
2018-03-20T00:42:33.401Z,988.81
2018-03-20T00:43:33.412Z,988.87
2018-03-20T00:44:33.363Z,988.83
2018-03-20T00:45:33.377Z,988.88
2018-03-20T00:46:33.440Z,988.90
2018-03-20T00:47:33.284Z,988.89
2018-03-20T00:48:33.275Z,988.91
2018-03-20T00:49:33.236Z,988.92
2018-03-20T00:50:33.177Z,988.92
2018-03-20T00:51:33.220Z,988.91
2018-03-20T00:52:33.211Z,988.87
2018-03-20T00:53:33.103Z,988.85
2018-03-20T00:54:33.108Z,988.86
2018-03-20T00:55:33.049Z,988.87
2018-03-20T00:56:33.032Z,988.90
2018-03-20T00:57:33.057Z,988.86
2018-03-20T00:58:32.975Z,988.87
2018-03-20T00:59:32.953Z,988.85
2018-03-20T01:00:32.927Z,988.83
2018-03-20T01:01:32.897Z,988.82
2018-03-20T01:02:32.878Z,988.77
2018-03-20T01:03:32.827Z,988.78
2018-03-20T01:04:32.822Z,988.78
2018-03-20T01:05:32.847Z,988.80
2018-03-20T01:06:32.789Z,988.75
2018-03-20T01:07:32.738Z,988.75
2018-03-20T01:08:32.712Z,988.71
2018-03-20T01:09:32.681Z,988.74
2018-03-20T01:10:32.655Z,988.70
2018-03-20T01:11:32.649Z,988.75
2018-03-20T01:12:32.592Z,988.75
2018-03-20T01:13:32.574Z,988.71
2018-03-20T01:14:32.614Z,988.75
2018-03-20T01:15:32.499Z,988.70
2018-03-20T01:16:32.543Z,988.73
2018-03-20T01:17:32.490Z,988.73
2018-03-20T01:18:32.434Z,988.71
2018-03-20T01:19:32.410Z,988.73
2018-03-20T01:20:32.409Z,988.75
2018-03-20T01:21:32.354Z,988.76
2018-03-20T01:22:32.292Z,988.74
2018-03-20T01:23:32.269Z,988.79
2018-03-20T01:24:32.249Z,988.76
2018-03-20T01:25:32.218Z,988.80
2018-03-20T01:26:32.246Z,988.79
2018-03-20T01:27:32.193Z,988.80
2018-03-20T01:28:32.199Z,988.77
2018-03-20T01:29:32.123Z,988.81
2018-03-20T01:30:32.065Z,988.78
2018-03-20T01:31:32.096Z,988.75
2018-03-20T01:32:32.066Z,988.77
2018-03-20T01:33:31.997Z,988.73
2018-03-20T01:34:32.018Z,988.77
2018-03-20T01:35:31.997Z,988.73
2018-03-20T01:36:31.977Z,988.71
2018-03-20T01:37:32.711Z,988.70
2018-03-20T01:38:31.862Z,988.71
2018-03-20T01:39:31.932Z,988.73
2018-03-20T01:40:31.815Z,988.72
2018-03-20T01:41:31.776Z,988.75
2018-03-20T01:42:31.748Z,988.78
2018-03-20T01:43:31.726Z,988.72
2018-03-20T01:44:31.737Z,988.77
2018-03-20T01:45:31.718Z,988.74
2018-03-20T01:46:31.672Z,988.70
2018-03-20T01:47:31.682Z,988.75
2018-03-20T01:48:31.574Z,988.75
2018-03-20T01:49:31.571Z,988.74
2018-03-20T01:50:31.534Z,988.78
2018-03-20T01:51:31.493Z,988.77
2018-03-20T01:52:31.503Z,988.75
2018-03-20T01:53:31.465Z,988.72
2018-03-20T01:54:31.431Z,988.72
2018-03-20T01:55:31.414Z,988.69
2018-03-20T01:56:31.381Z,988.72
2018-03-20T01:57:31.346Z,988.70
2018-03-20T01:58:31.315Z,988.67
2018-03-20T01:59:31.281Z,988.64
2018-03-20T02:00:31.274Z,988.65
2018-03-20T02:01:31.218Z,988.60
2018-03-20T02:02:31.191Z,988.66
2018-03-20T02:03:31.162Z,988.64
2018-03-20T02:04:31.141Z,988.64
2018-03-20T02:05:31.107Z,988.62
2018-03-20T02:06:31.132Z,988.65
2018-03-20T02:07:31.047Z,988.61
2018-03-20T02:08:31.027Z,988.66
2018-03-20T02:09:30.998Z,988.65
2018-03-20T02:10:30.959Z,988.69
2018-03-20T02:11:30.976Z,988.69
2018-03-20T02:12:30.928Z,988.64
2018-03-20T02:13:30.904Z,988.69
2018-03-20T02:14:30.902Z,988.67
2018-03-20T02:15:30.850Z,988.67
2018-03-20T02:16:30.822Z,988.68
2018-03-20T02:17:30.767Z,988.68
2018-03-20T02:18:30.762Z,988.71
2018-03-20T02:19:30.738Z,988.71
2018-03-20T02:20:30.797Z,988.71
2018-03-20T02:21:30.643Z,988.73
2018-03-20T02:22:30.664Z,988.72
2018-03-20T02:23:30.593Z,988.70
2018-03-20T02:24:30.574Z,988.71
2018-03-20T02:25:30.582Z,988.71
2018-03-20T02:26:30.541Z,988.77
2018-03-20T02:27:30.490Z,988.78
2018-03-20T02:28:30.504Z,988.74
2018-03-20T02:29:30.440Z,988.81
2018-03-20T02:30:30.427Z,988.82
2018-03-20T02:31:30.398Z,988.81
2018-03-20T02:32:30.348Z,988.85
2018-03-20T02:33:30.333Z,988.79
2018-03-20T02:34:30.318Z,988.81
2018-03-20T02:35:30.253Z,988.81
2018-03-20T02:36:30.247Z,988.77
2018-03-20T02:37:30.206Z,988.81
2018-03-20T02:38:30.192Z,988.75
2018-03-20T02:39:30.173Z,988.77
2018-03-20T02:40:30.118Z,988.81
2018-03-20T02:41:30.100Z,988.82
2018-03-20T02:42:30.080Z,988.82
2018-03-20T02:43:30.060Z,988.82
2018-03-20T02:44:30.024Z,988.83
2018-03-20T02:45:29.992Z,988.87
2018-03-20T02:46:29.969Z,988.86
2018-03-20T02:47:29.938Z,988.84
2018-03-20T02:48:29.918Z,988.89
2018-03-20T02:49:29.881Z,988.92
2018-03-20T02:50:29.883Z,988.89
2018-03-20T02:51:29.817Z,988.84
2018-03-20T02:52:29.795Z,988.85
2018-03-20T02:53:29.774Z,988.83
2018-03-20T02:54:29.745Z,988.88
2018-03-20T02:55:29.689Z,988.86
2018-03-20T02:56:29.678Z,988.85
2018-03-20T02:57:29.650Z,988.86
2018-03-20T02:58:29.618Z,988.84
2018-03-20T02:59:29.609Z,988.89
2018-03-20T03:00:29.564Z,988.83
2018-03-20T03:01:29.541Z,988.83
2018-03-20T03:02:29.496Z,988.82
2018-03-20T03:03:29.476Z,988.80
2018-03-20T03:04:29.471Z,988.77
2018-03-20T03:05:29.423Z,988.79
2018-03-20T03:06:29.381Z,988.75
2018-03-20T03:07:29.348Z,988.74
2018-03-20T03:08:29.327Z,988.77
2018-03-20T03:09:29.351Z,988.74
2018-03-20T03:10:29.277Z,988.76
2018-03-20T03:11:29.253Z,988.76
2018-03-20T03:12:31.734Z,988.68
2018-03-20T03:13:29.205Z,988.72
2018-03-20T03:14:29.201Z,988.68
2018-03-20T03:15:29.144Z,988.74
2018-03-20T03:16:29.098Z,988.72
2018-03-20T03:17:29.099Z,988.74
2018-03-20T03:18:29.042Z,988.69
2018-03-20T03:19:29.053Z,988.69
2018-03-20T03:20:29.003Z,988.70
2018-03-20T03:21:28.949Z,988.75
2018-03-20T03:22:28.923Z,988.76
2018-03-20T03:23:28.920Z,988.73
2018-03-20T03:24:28.869Z,988.73
2018-03-20T03:25:28.851Z,988.75
2018-03-20T03:26:28.867Z,988.76
2018-03-20T03:27:28.801Z,988.76
2018-03-20T03:28:28.796Z,988.79
2018-03-20T03:29:28.735Z,988.77
2018-03-20T03:30:28.702Z,988.77
2018-03-20T03:31:28.687Z,988.73
2018-03-20T03:32:28.650Z,988.69
2018-03-20T03:33:28.633Z,988.72
2018-03-20T03:34:28.635Z,988.74
2018-03-20T03:35:28.581Z,988.76
2018-03-20T03:36:28.536Z,988.75
2018-03-20T03:37:28.573Z,988.73
2018-03-20T03:38:28.466Z,988.75
2018-03-20T03:39:28.448Z,988.74
2018-03-20T03:40:28.445Z,988.79
2018-03-20T03:41:28.404Z,988.73
2018-03-20T03:42:29.263Z,988.81
2018-03-20T03:43:28.328Z,988.81
2018-03-20T03:44:28.306Z,988.86
2018-03-20T03:45:28.292Z,988.81
2018-03-20T03:46:28.264Z,988.78
2018-03-20T03:47:28.252Z,988.77
2018-03-20T03:48:28.187Z,988.74
2018-03-20T03:49:28.172Z,988.74
2018-03-20T03:50:28.137Z,988.68
2018-03-20T03:51:28.106Z,988.70
2018-03-20T03:52:28.087Z,988.65
2018-03-20T03:53:28.068Z,988.66
2018-03-20T03:54:28.064Z,988.62
2018-03-20T03:55:27.999Z,988.60
2018-03-20T03:56:27.994Z,988.54
2018-03-20T03:57:27.934Z,988.58
2018-03-20T03:58:27.911Z,988.62
2018-03-20T03:59:27.879Z,988.65
2018-03-20T04:00:27.860Z,988.68
2018-03-20T04:01:27.819Z,988.67
2018-03-20T04:02:27.818Z,988.67
2018-03-20T04:03:27.763Z,988.65
2018-03-20T04:04:27.761Z,988.67
2018-03-20T04:05:27.710Z,988.71
2018-03-20T04:06:27.703Z,988.76
2018-03-20T04:07:27.686Z,988.77
2018-03-20T04:08:27.623Z,988.77
2018-03-20T04:09:27.589Z,988.76
2018-03-20T04:10:27.592Z,988.75
2018-03-20T04:11:27.548Z,988.76
2018-03-20T04:12:27.522Z,988.76
2018-03-20T04:13:27.479Z,988.73
2018-03-20T04:14:27.489Z,988.76
2018-03-20T04:15:27.439Z,988.83
2018-03-20T04:16:27.390Z,988.81
2018-03-20T04:17:27.366Z,988.78
2018-03-20T04:18:27.374Z,988.77
2018-03-20T04:19:27.313Z,988.81
2018-03-20T04:20:27.319Z,988.70
2018-03-20T04:21:27.283Z,988.68
2018-03-20T04:22:27.225Z,988.70
2018-03-20T04:23:27.246Z,988.74
2018-03-20T04:24:27.162Z,988.72
2018-03-20T04:25:27.151Z,988.74
2018-03-20T04:26:27.138Z,988.75
2018-03-20T04:27:27.074Z,988.73
2018-03-20T04:28:27.048Z,988.73
2018-03-20T04:29:27.063Z,988.72
2018-03-20T04:30:27.047Z,988.60
2018-03-20T04:31:26.990Z,988.60
2018-03-20T04:32:26.939Z,988.54
2018-03-20T04:33:26.907Z,988.52
2018-03-20T04:34:26.953Z,988.55
2018-03-20T04:35:26.866Z,988.54
2018-03-20T04:36:26.834Z,988.48
2018-03-20T04:37:26.804Z,988.52
2018-03-20T04:38:26.808Z,988.51
2018-03-20T04:39:26.768Z,988.53
2018-03-20T04:40:26.751Z,988.55
2018-03-20T04:41:26.698Z,988.57
2018-03-20T04:42:26.656Z,988.57
2018-03-20T04:43:26.653Z,988.47
2018-03-20T04:44:26.613Z,988.42
2018-03-20T04:45:26.595Z,988.40
2018-03-20T04:46:26.575Z,988.37
2018-03-20T04:47:26.569Z,988.35
2018-03-20T04:48:26.569Z,988.32
2018-03-20T04:49:26.488Z,988.34
2018-03-20T04:50:26.460Z,988.41
2018-03-20T04:51:26.470Z,988.46
2018-03-20T04:52:26.474Z,988.44
2018-03-20T04:53:26.477Z,988.38
2018-03-20T04:54:26.440Z,988.41
2018-03-20T04:55:26.360Z,988.39
2018-03-20T04:56:26.294Z,988.41
2018-03-20T04:57:26.277Z,988.44
2018-03-20T04:58:27.058Z,988.43
2018-03-20T04:59:26.241Z,988.43
2018-03-20T05:00:26.183Z,988.45
2018-03-20T05:01:26.133Z,988.41
2018-03-20T05:02:26.139Z,988.47
2018-03-20T05:03:26.091Z,988.54
2018-03-20T05:04:26.180Z,988.51
2018-03-20T05:05:26.012Z,988.46
2018-03-20T05:06:25.998Z,988.48
2018-03-20T05:07:26.005Z,988.51
2018-03-20T05:08:25.944Z,988.54
2018-03-20T05:09:25.945Z,988.56
2018-03-20T05:10:25.939Z,988.53
2018-03-20T05:11:25.987Z,988.54
2018-03-20T05:12:25.859Z,988.57
2018-03-20T05:13:25.842Z,988.56
2018-03-20T05:14:25.818Z,988.58
2018-03-20T05:15:25.867Z,988.61
2018-03-20T05:16:25.722Z,988.59
2018-03-20T05:17:25.733Z,988.54
2018-03-20T05:18:25.727Z,988.54
2018-03-20T05:19:25.666Z,988.49
2018-03-20T05:20:25.603Z,988.49
2018-03-20T05:21:25.566Z,988.47
2018-03-20T05:22:25.573Z,988.53
2018-03-20T05:23:25.520Z,988.53
2018-03-20T05:24:25.539Z,988.53
2018-03-20T05:25:25.452Z,988.53
2018-03-20T05:26:25.502Z,988.59
2018-03-20T05:27:25.391Z,988.57
2018-03-20T05:28:25.395Z,988.53
2018-03-20T05:29:25.409Z,988.58
2018-03-20T05:30:25.389Z,988.56
2018-03-20T05:31:25.342Z,988.59
2018-03-20T05:32:25.284Z,988.61
2018-03-20T05:33:25.248Z,988.64
2018-03-20T05:34:25.211Z,988.61
2018-03-20T05:35:25.226Z,988.62
2018-03-20T05:36:25.189Z,988.56
2018-03-20T05:37:25.166Z,988.58
2018-03-20T05:38:25.161Z,988.57
2018-03-20T05:39:25.173Z,988.58
2018-03-20T05:40:25.103Z,988.55
2018-03-20T05:41:25.017Z,988.56
2018-03-20T05:42:25.034Z,988.57
2018-03-20T05:43:24.983Z,988.58
2018-03-20T05:44:24.953Z,988.63
2018-03-20T05:45:24.908Z,988.68
2018-03-20T05:46:24.904Z,988.65
2018-03-20T05:47:24.847Z,988.60
2018-03-20T05:48:24.839Z,988.61
2018-03-20T05:49:24.817Z,988.61
2018-03-20T05:50:24.773Z,988.63
2018-03-20T05:51:24.755Z,988.63
2018-03-20T05:52:24.755Z,988.62
2018-03-20T05:53:24.705Z,988.65
2018-03-20T05:54:24.703Z,988.68
2018-03-20T05:55:24.665Z,988.65
2018-03-20T05:56:24.611Z,988.62
2018-03-20T05:57:24.637Z,988.61
2018-03-20T05:58:24.558Z,988.64
2018-03-20T05:59:24.582Z,988.66
2018-03-20T06:00:24.562Z,988.63
2018-03-20T06:01:24.492Z,988.63
2018-03-20T06:02:24.475Z,988.67
2018-03-20T06:03:24.432Z,988.61
2018-03-20T06:04:24.406Z,988.64
2018-03-20T06:05:24.365Z,988.66
2018-03-20T06:06:24.347Z,988.66
2018-03-20T06:07:24.332Z,988.66
2018-03-20T06:08:24.320Z,988.67
2018-03-20T06:09:24.279Z,988.69
2018-03-20T06:10:24.285Z,988.74
2018-03-20T06:11:24.220Z,988.76
2018-03-20T06:12:24.192Z,988.81
2018-03-20T06:13:24.165Z,988.82
2018-03-20T06:14:24.120Z,988.82
2018-03-20T06:15:24.104Z,988.81
2018-03-20T06:16:24.079Z,988.78
2018-03-20T06:17:24.095Z,988.80
2018-03-20T06:18:24.038Z,988.78
2018-03-20T06:19:24.020Z,988.82
2018-03-20T06:20:23.989Z,988.82
2018-03-20T06:21:23.951Z,988.84
2018-03-20T06:22:23.920Z,988.80
2018-03-20T06:23:23.879Z,988.81
2018-03-20T06:24:23.892Z,988.81
2018-03-20T06:25:23.891Z,988.78
2018-03-20T06:26:23.832Z,988.79
2018-03-20T06:27:23.797Z,988.75
2018-03-20T06:28:23.778Z,988.73
2018-03-20T06:29:23.726Z,988.74
2018-03-20T06:30:23.717Z,988.76
2018-03-20T06:31:23.684Z,988.78
2018-03-20T06:32:23.643Z,988.81
2018-03-20T06:33:23.645Z,988.75
2018-03-20T06:34:23.614Z,988.82
2018-03-20T06:35:23.581Z,988.81
2018-03-20T06:36:23.544Z,988.81
2018-03-20T06:37:23.547Z,988.80
2018-03-20T06:38:23.481Z,988.82
2018-03-20T06:39:23.459Z,988.77
2018-03-20T06:40:23.461Z,988.78
2018-03-20T06:41:23.424Z,988.75
2018-03-20T06:42:23.393Z,988.74
2018-03-20T06:43:23.349Z,988.77
2018-03-20T06:44:23.361Z,988.78
2018-03-20T06:45:23.335Z,988.76
2018-03-20T06:46:23.332Z,988.78
2018-03-20T06:47:23.257Z,988.75
2018-03-20T06:48:23.252Z,988.73
2018-03-20T06:49:23.225Z,988.74
2018-03-20T06:50:23.169Z,988.75
2018-03-20T06:51:23.154Z,988.76
2018-03-20T06:52:23.119Z,988.73
2018-03-20T06:53:23.127Z,988.70
2018-03-20T06:54:23.060Z,988.70
2018-03-20T06:55:23.066Z,988.71
2018-03-20T06:56:23.059Z,988.75
2018-03-20T06:57:23.121Z,988.74
2018-03-20T06:58:22.981Z,988.75
2018-03-20T06:59:22.967Z,988.68
2018-03-20T07:00:22.916Z,988.71
2018-03-20T07:01:22.907Z,988.69
2018-03-20T07:02:22.870Z,988.71
2018-03-20T07:03:22.839Z,988.79
2018-03-20T07:04:22.830Z,988.77
2018-03-20T07:05:22.817Z,988.75
2018-03-20T07:06:22.758Z,988.76
2018-03-20T07:07:22.734Z,988.74
2018-03-20T07:08:22.719Z,988.73
2018-03-20T07:09:22.711Z,988.72
2018-03-20T07:10:22.658Z,988.78
2018-03-20T07:11:22.647Z,988.79
2018-03-20T07:12:22.619Z,988.80
2018-03-20T07:13:22.585Z,988.80
2018-03-20T07:14:22.563Z,988.82
2018-03-20T07:15:22.542Z,988.82
2018-03-20T07:16:22.550Z,988.80
2018-03-20T07:17:22.511Z,988.81
2018-03-20T07:18:22.502Z,988.83
2018-03-20T07:19:22.501Z,988.84
2018-03-20T07:20:22.409Z,988.87
2018-03-20T07:21:22.401Z,988.83
2018-03-20T07:22:22.353Z,988.87
2018-03-20T07:23:22.346Z,988.90
2018-03-20T07:24:22.301Z,988.87
2018-03-20T07:25:22.330Z,988.86
2018-03-20T07:26:22.226Z,988.87
2018-03-20T07:27:22.245Z,988.87
2018-03-20T07:28:22.241Z,988.87
2018-03-20T07:29:22.191Z,988.92
2018-03-20T07:30:22.199Z,988.88
2018-03-20T07:31:22.114Z,988.87
2018-03-20T07:32:22.129Z,988.90
2018-03-20T07:33:22.066Z,988.90
2018-03-20T07:34:22.037Z,988.92
2018-03-20T07:35:22.011Z,988.91
2018-03-20T07:36:21.987Z,988.97
2018-03-20T07:37:21.985Z,989.00
2018-03-20T07:38:21.960Z,989.05
2018-03-20T07:39:21.935Z,989.03
2018-03-20T07:40:21.909Z,989.09
2018-03-20T07:41:21.852Z,989.06
2018-03-20T07:42:21.870Z,989.02
2018-03-20T07:43:21.821Z,989.07
2018-03-20T07:44:21.816Z,989.07
2018-03-20T07:45:21.764Z,989.06
2018-03-20T07:46:21.714Z,989.09
2018-03-20T07:47:21.712Z,989.11
2018-03-20T07:48:21.710Z,989.12
2018-03-20T07:49:21.646Z,989.08
2018-03-20T07:50:21.638Z,989.11
2018-03-20T07:51:21.613Z,989.10
2018-03-20T07:52:21.602Z,989.11
2018-03-20T07:53:21.592Z,989.09
2018-03-20T07:54:21.522Z,989.11
2018-03-20T07:55:21.553Z,989.08
2018-03-20T07:56:21.501Z,989.07
2018-03-20T07:57:21.452Z,989.09
2018-03-20T07:58:21.453Z,989.10
2018-03-20T07:59:21.408Z,989.12
2018-03-20T08:00:21.384Z,989.16
2018-03-20T08:01:21.363Z,989.17
2018-03-20T08:02:21.330Z,989.14
2018-03-20T08:03:21.308Z,989.19
2018-03-20T08:04:21.284Z,989.16
2018-03-20T08:05:21.280Z,989.16
2018-03-20T08:06:21.275Z,989.17
2018-03-20T08:07:21.220Z,989.20
2018-03-20T08:08:21.202Z,989.21
2018-03-20T08:09:21.144Z,989.18
2018-03-20T08:10:21.111Z,989.15
2018-03-20T08:11:21.084Z,989.16
2018-03-20T08:12:21.058Z,989.20
2018-03-20T08:13:21.097Z,989.24
2018-03-20T08:14:21.064Z,989.26
2018-03-20T08:15:20.994Z,989.27
2018-03-20T08:16:20.961Z,989.39
2018-03-20T08:17:20.941Z,989.41
2018-03-20T08:18:20.927Z,989.39
2018-03-20T08:19:20.908Z,989.42
2018-03-20T08:20:20.862Z,989.40
2018-03-20T08:21:20.851Z,989.40
2018-03-20T08:22:20.811Z,989.39
2018-03-20T08:23:20.840Z,989.37
2018-03-20T08:24:20.792Z,989.36
2018-03-20T08:25:20.788Z,989.41
2018-03-20T08:26:20.734Z,989.42
2018-03-20T08:27:20.687Z,989.41
2018-03-20T08:28:20.677Z,989.40
2018-03-20T08:29:20.688Z,989.44
2018-03-20T08:30:20.608Z,989.41
2018-03-20T08:31:20.668Z,989.43
2018-03-20T08:32:20.583Z,989.42
2018-03-20T08:33:20.561Z,989.45
2018-03-20T08:34:20.541Z,989.47
2018-03-20T08:35:20.523Z,989.43
2018-03-20T08:36:20.491Z,989.44
2018-03-20T08:37:20.450Z,989.50
2018-03-20T08:38:20.417Z,989.49
2018-03-20T08:39:20.428Z,989.47
2018-03-20T08:40:20.390Z,989.46
2018-03-20T08:41:20.384Z,989.46
2018-03-20T08:42:20.348Z,989.45
2018-03-20T08:43:20.313Z,989.45
2018-03-20T08:44:20.461Z,989.46
2018-03-20T08:45:20.245Z,989.49
2018-03-20T08:46:20.275Z,989.47
2018-03-20T08:47:20.190Z,989.49
2018-03-20T08:48:20.211Z,989.45
2018-03-20T08:49:20.169Z,989.48
2018-03-20T08:50:20.128Z,989.48
2018-03-20T08:51:20.178Z,989.52
2018-03-20T08:52:20.104Z,989.52
2018-03-20T08:53:20.113Z,989.51
2018-03-20T08:54:20.054Z,989.51
2018-03-20T08:55:20.021Z,989.46
2018-03-20T08:56:20.018Z,989.48
2018-03-20T08:57:20.074Z,989.46
2018-03-20T08:58:19.940Z,989.48
2018-03-20T08:59:19.951Z,989.50
2018-03-20T09:00:19.920Z,989.52
2018-03-20T09:01:19.838Z,989.52
2018-03-20T09:02:19.877Z,989.57
2018-03-20T09:03:19.805Z,989.56
2018-03-20T09:04:19.821Z,989.55
2018-03-20T09:05:19.827Z,989.55
2018-03-20T09:06:19.817Z,989.54
2018-03-20T09:07:19.709Z,989.57
2018-03-20T09:08:19.748Z,989.57
2018-03-20T09:09:19.674Z,989.55
2018-03-20T09:10:19.641Z,989.54
2018-03-20T09:11:19.591Z,989.56
2018-03-20T09:12:19.604Z,989.55
2018-03-20T09:13:19.572Z,989.55
2018-03-20T09:14:19.529Z,989.58
2018-03-20T09:15:19.523Z,989.61
2018-03-20T09:16:19.527Z,989.56
2018-03-20T09:17:19.457Z,989.61
2018-03-20T09:18:19.437Z,989.65
2018-03-20T09:19:19.407Z,989.57
2018-03-20T09:20:19.419Z,989.63
2018-03-20T09:21:19.394Z,989.65
2018-03-20T09:22:19.390Z,989.63
2018-03-20T09:23:19.311Z,989.59
2018-03-20T09:24:19.308Z,989.65
2018-03-20T09:25:19.289Z,989.68
2018-03-20T09:26:19.250Z,989.68
2018-03-20T09:27:19.215Z,989.67
2018-03-20T09:28:19.212Z,989.67
2018-03-20T09:29:19.234Z,989.72
2018-03-20T09:30:19.131Z,989.73
2018-03-20T09:31:19.108Z,989.72
2018-03-20T09:32:19.120Z,989.68
2018-03-20T09:33:19.078Z,989.71
2018-03-20T09:34:19.069Z,989.68
2018-03-20T09:35:19.013Z,989.76
2018-03-20T09:36:19.035Z,989.74
2018-03-20T09:37:18.976Z,989.76
2018-03-20T09:38:18.970Z,989.75
2018-03-20T09:39:18.909Z,989.74
2018-03-20T09:40:18.881Z,989.78
2018-03-20T09:41:18.907Z,989.74
2018-03-20T09:42:18.822Z,989.78
2018-03-20T09:43:18.884Z,989.78
2018-03-20T09:44:18.785Z,989.76
2018-03-20T09:45:18.781Z,989.81
2018-03-20T09:46:18.780Z,989.81
2018-03-20T09:47:18.730Z,989.79
2018-03-20T09:48:18.713Z,989.80
2018-03-20T09:49:18.690Z,989.83
2018-03-20T09:50:18.673Z,989.81
2018-03-20T09:51:18.670Z,989.84
2018-03-20T09:52:18.621Z,989.86
2018-03-20T09:53:18.607Z,989.85
2018-03-20T09:54:18.577Z,989.88
2018-03-20T09:55:18.507Z,989.84
2018-03-20T09:56:18.541Z,989.85
2018-03-20T09:57:18.480Z,989.84
2018-03-20T09:58:18.483Z,989.88
2018-03-20T09:59:18.506Z,989.91
2018-03-20T10:00:18.421Z,989.91
2018-03-20T10:01:18.420Z,989.88
2018-03-20T10:02:18.410Z,989.86
2018-03-20T10:03:18.381Z,989.89
2018-03-20T10:04:18.327Z,989.90
2018-03-20T10:05:18.904Z,989.94
2018-03-20T10:06:18.299Z,989.90
2018-03-20T10:07:18.260Z,989.90
2018-03-20T10:08:18.245Z,989.96
2018-03-20T10:09:18.236Z,989.98
2018-03-20T10:10:18.194Z,989.96
2018-03-20T10:11:18.167Z,990.01
2018-03-20T10:12:18.123Z,990.00
2018-03-20T10:13:18.123Z,990.06
2018-03-20T10:14:18.166Z,990.04
2018-03-20T10:15:18.061Z,990.09
2018-03-20T10:16:18.022Z,990.09
2018-03-20T10:17:18.007Z,990.11
2018-03-20T10:18:17.986Z,990.13
2018-03-20T10:19:17.950Z,990.11
2018-03-20T10:20:18.005Z,990.13
2018-03-20T10:21:17.917Z,990.17
2018-03-20T10:22:17.897Z,990.16
2018-03-20T10:23:17.859Z,990.19
2018-03-20T10:24:17.844Z,990.15
2018-03-20T10:25:17.796Z,990.18
2018-03-20T10:26:17.838Z,990.16
2018-03-20T10:27:17.783Z,990.22
2018-03-20T10:28:17.729Z,990.22
2018-03-20T10:29:17.691Z,990.26
2018-03-20T10:30:17.691Z,990.23
2018-03-20T10:31:17.659Z,990.25
2018-03-20T10:32:17.659Z,990.24
2018-03-20T10:33:17.609Z,990.27
2018-03-20T10:34:17.567Z,990.30
2018-03-20T10:35:17.605Z,990.35
2018-03-20T10:36:17.568Z,990.35
2018-03-20T10:37:17.524Z,990.35
2018-03-20T10:38:17.607Z,990.30
2018-03-20T10:39:17.481Z,990.30
2018-03-20T10:40:17.450Z,990.38
2018-03-20T10:41:17.440Z,990.34
2018-03-20T10:42:17.426Z,990.37
2018-03-20T10:43:17.401Z,990.36
2018-03-20T10:44:17.386Z,990.39
2018-03-20T10:45:17.357Z,990.36
2018-03-20T10:46:17.309Z,990.38
2018-03-20T10:47:17.303Z,990.42
2018-03-20T10:48:17.254Z,990.41
2018-03-20T10:49:17.253Z,990.46
2018-03-20T10:50:17.212Z,990.45
2018-03-20T10:51:17.187Z,990.47
2018-03-20T10:52:17.203Z,990.44
2018-03-20T10:53:17.143Z,990.45
2018-03-20T10:54:17.110Z,990.53
2018-03-20T10:55:17.085Z,990.47
2018-03-20T10:56:17.056Z,990.49
2018-03-20T10:57:17.068Z,990.49
2018-03-20T10:58:17.034Z,990.50
2018-03-20T10:59:16.965Z,990.50
2018-03-20T11:00:17.008Z,990.53
2018-03-20T11:01:17.826Z,990.51
2018-03-20T11:02:16.924Z,990.58
2018-03-20T11:03:16.891Z,990.54
2018-03-20T11:04:16.856Z,990.55
2018-03-20T11:05:16.830Z,990.62
2018-03-20T11:06:16.819Z,990.63
2018-03-20T11:07:16.812Z,990.63
2018-03-20T11:08:16.825Z,990.65
2018-03-20T11:09:16.778Z,990.62
2018-03-20T11:10:16.772Z,990.69
2018-03-20T11:11:16.714Z,990.69
2018-03-20T11:12:16.723Z,990.71
2018-03-20T11:13:16.648Z,990.72
2018-03-20T11:14:16.655Z,990.68
2018-03-20T11:15:16.624Z,990.71
2018-03-20T11:16:17.237Z,990.73
2018-03-20T11:17:16.589Z,990.74
2018-03-20T11:18:16.516Z,990.76
2018-03-20T11:19:16.503Z,990.78
2018-03-20T11:20:16.526Z,990.83
2018-03-20T11:21:16.548Z,990.84
2018-03-20T11:22:16.423Z,990.87
2018-03-20T11:23:16.452Z,990.85
2018-03-20T11:24:16.410Z,990.83
2018-03-20T11:25:16.367Z,990.88
2018-03-20T11:26:16.320Z,990.88
2018-03-20T11:27:16.290Z,990.92
2018-03-20T11:28:16.315Z,990.87
2018-03-20T11:29:16.302Z,990.91
2018-03-20T11:30:16.222Z,990.94
2018-03-20T11:31:16.249Z,990.90
2018-03-20T11:32:16.202Z,990.90
2018-03-20T11:33:16.218Z,990.94
2018-03-20T11:34:16.169Z,990.94
2018-03-20T11:35:16.128Z,990.97
2018-03-20T11:36:16.115Z,990.99
2018-03-20T11:37:16.085Z,991.00
2018-03-20T11:38:16.042Z,991.04
2018-03-20T11:39:16.039Z,991.00
2018-03-20T11:40:16.017Z,991.02
2018-03-20T11:41:15.966Z,991.03
2018-03-20T11:42:15.935Z,991.00
2018-03-20T11:43:15.975Z,991.08
2018-03-20T11:44:15.891Z,991.03
2018-03-20T11:45:15.878Z,991.06
2018-03-20T11:46:15.837Z,991.04
2018-03-20T11:47:15.919Z,991.07
2018-03-20T11:48:15.790Z,991.08
2018-03-20T11:49:15.810Z,991.07
2018-03-20T11:50:15.779Z,991.06
2018-03-20T11:51:15.765Z,991.06
2018-03-20T11:52:15.751Z,991.06
2018-03-20T11:53:15.699Z,991.06
2018-03-20T11:54:15.708Z,991.10
2018-03-20T11:55:15.664Z,991.12
2018-03-20T11:56:15.643Z,991.03
2018-03-20T11:57:15.613Z,991.05
2018-03-20T11:58:15.560Z,991.09
2018-03-20T11:59:15.560Z,991.09
2018-03-20T12:00:15.523Z,991.10
2018-03-20T12:01:15.570Z,991.10
2018-03-20T12:02:15.518Z,991.15
2018-03-20T12:03:15.483Z,991.13
2018-03-20T12:04:15.422Z,991.16
2018-03-20T12:05:15.437Z,991.18
2018-03-20T12:06:15.415Z,991.19
2018-03-20T12:07:15.370Z,991.23
2018-03-20T12:08:15.355Z,991.16
2018-03-20T12:09:15.405Z,991.20
2018-03-20T12:10:15.258Z,991.26
2018-03-20T12:11:15.264Z,991.20
2018-03-20T12:12:15.236Z,991.24
2018-03-20T12:13:15.251Z,991.23
2018-03-20T12:14:15.208Z,991.22
2018-03-20T12:15:15.224Z,991.22
2018-03-20T12:16:15.132Z,991.19
2018-03-20T12:17:15.118Z,991.24
2018-03-20T12:18:15.109Z,991.28
2018-03-20T12:19:15.131Z,991.30
2018-03-20T12:20:15.046Z,991.29
2018-03-20T12:21:14.996Z,991.33
2018-03-20T12:22:15.033Z,991.26
2018-03-20T12:23:14.993Z,991.30
2018-03-20T12:24:14.978Z,991.28
2018-03-20T12:25:15.007Z,991.28
2018-03-20T12:26:14.898Z,991.33
2018-03-20T12:27:14.887Z,991.25
2018-03-20T12:28:14.933Z,991.27